Time;durP1;ratioP1;P1;durP2;ratioP2;P2;SDS_P1;SDS_P2;PMS_P1;PMS_P2;Temp;Humidity;BMP_temperature;BMP_pressure;BME280_temperature;BME280_humidity;BME280_pressure;Samples;Min_cycle;Max_cycle;Signal;HPM_P1;HPM_P2
2021/01/09 00:01:49;;;;;;;38.47;23.00;;;;;;;;;;4981872;28;20270;-88
2021/01/09 00:04:16;;;;;;;42.97;23.10;;;;;;;;;;4984427;28;20289;-87
2021/01/09 00:06:50;;;;;;;47.03;24.30;;;;;;;;;;4984123;28;20383;-88
2021/01/09 00:09:16;;;;;;;41.83;23.93;;;;;;;;;;4989944;28;20330;-87
2021/01/09 00:11:42;;;;;;;43.90;22.47;;;;;;;;;;4989325;28;20265;-88
2021/01/09 00:14:20;;;;;;;41.23;24.50;;;;;;;;;;4982818;28;20268;-88
2021/01/09 00:16:49;;;;;;;42.33;22.80;;;;;;;;;;4983638;28;20277;-87
2021/01/09 00:19:15;;;;;;;46.63;24.20;;;;;;;;;;4974620;28;20280;-87
2021/01/09 00:21:41;;;;;;;44.00;23.23;;;;;;;;;;4985822;28;20261;-88
2021/01/09 00:24:11;;;;;;;46.47;25.90;;;;;;;;;;4979009;28;20289;-87
2021/01/09 00:26:38;;;;;;;43.47;25.77;;;;;;;;;;4978573;28;20541;-87
2021/01/09 00:29:05;;;;;;;44.30;23.27;;;;;;;;;;4991834;28;20262;-88
2021/01/09 00:31:37;;;;;;;40.87;22.77;;;;;;;;;;4981529;28;20271;-88
2021/01/09 00:34:05;;;;;;;40.03;21.53;;;;;;;;;;4979690;28;21204;-88
2021/01/09 00:36:32;;;;;;;37.40;19.87;;;;;;;;;;4983183;28;20359;-87
2021/01/09 00:38:58;;;;;;;41.60;22.83;;;;;;;;;;4985192;28;20315;-87
2021/01/09 00:41:31;;;;;;;43.23;22.50;;;;;;;;;;4978204;28;20268;-88
2021/01/09 00:44:09;;;;;;;42.28;22.10;;;;;;;;;;4979428;28;20780;-87
2021/01/09 00:46:35;;;;;;;46.30;25.93;;;;;;;;;;4989665;28;20282;-88
2021/01/09 00:49:04;;;;;;;40.10;23.47;;;;;;;;;;4987215;28;20296;-88
2021/01/09 00:51:30;;;;;;;40.27;24.13;;;;;;;;;;4976285;28;20270;-88
2021/01/09 00:54:10;;;;;;;40.50;22.53;;;;;;;;;;4957318;28;20255;-88
2021/01/09 00:56:36;;;;;;;38.13;21.20;;;;;;;;;;4960997;28;20348;-88
2021/01/09 00:59:05;;;;;;;37.50;21.77;;;;;;;;;;4971461;28;20266;-88
2021/01/09 01:01:31;;;;;;;40.30;22.20;;;;;;;;;;4963250;28;20270;-87
2021/01/09 01:03:57;;;;;;;40.10;22.60;;;;;;;;;;4975795;28;20617;-87
2021/01/09 01:06:24;;;;;;;40.10;23.80;;;;;;;;;;4971843;28;20578;-87
2021/01/09 01:08:54;;;;;;;36.77;20.73;;;;;;;;;;4972144;28;20265;-87
2021/01/09 01:11:30;;;;;;;40.70;24.07;;;;;;;;;;4981129;28;20301;-87
2021/01/09 01:13:57;;;;;;;38.63;23.10;;;;;;;;;;4975064;28;20271;-87
2021/01/09 01:16:24;;;;;;;42.30;22.97;;;;;;;;;;4977201;28;20270;-87
2021/01/09 01:18:50;;;;;;;39.13;21.93;;;;;;;;;;4991401;28;20269;-84
2021/01/09 01:21:16;;;;;;;38.17;21.67;;;;;;;;;;4972246;28;20274;-87
2021/01/09 01:23:49;;;;;;;38.23;21.80;;;;;;;;;;4973855;28;20474;-87
2021/01/09 01:26:15;;;;;;;38.30;22.07;;;;;;;;;;4988297;28;20347;-87
2021/01/09 01:28:41;;;;;;;41.83;22.00;;;;;;;;;;4975040;28;20805;-88
2021/01/09 01:31:09;;;;;;;44.47;22.13;;;;;;;;;;4983876;28;20282;-87
2021/01/09 01:33:35;;;;;;;40.37;20.90;;;;;;;;;;4977291;28;20277;-87
2021/01/09 01:36:01;;;;;;;35.33;20.63;;;;;;;;;;4967171;28;20274;-87
2021/01/09 01:38:27;;;;;;;36.13;21.77;;;;;;;;;;4974679;28;20293;-87
2021/01/09 01:41:04;;;;;;;37.70;19.77;;;;;;;;;;4973660;28;20286;-87
2021/01/09 01:43:30;;;;;;;30.90;17.60;;;;;;;;;;4975799;28;20321;-87
2021/01/09 01:45:57;;;;;;;33.10;19.70;;;;;;;;;;4974769;28;20278;-87
2021/01/09 01:48:23;;;;;;;36.93;19.70;;;;;;;;;;4985232;28;20281;-87
2021/01/09 01:50:50;;;;;;;34.30;18.93;;;;;;;;;;4976502;28;20271;-87
2021/01/09 01:53:16;;;;;;;36.63;20.37;;;;;;;;;;4976918;28;20297;-87
2021/01/09 01:55:44;;;;;;;38.67;21.27;;;;;;;;;;4980978;28;20277;-87
2021/01/09 01:58:16;;;;;;;39.77;22.70;;;;;;;;;;4972491;28;20292;-86
2021/01/09 02:00:46;;;;;;;42.70;21.53;;;;;;;;;;4961580;28;20262;-86
2021/01/09 02:03:13;;;;;;;39.43;20.13;;;;;;;;;;4980774;28;20274;-87
2021/01/09 02:06:00;;;;;;;40.03;22.13;;;;;;;;;;4973646;28;20278;-87
2021/01/09 02:08:29;;;;;;;41.57;22.53;;;;;;;;;;4984555;28;20346;-87
2021/01/09 02:10:57;;;;;;;36.67;20.60;;;;;;;;;;4976034;28;20341;-87
2021/01/09 02:13:27;;;;;;;35.23;19.57;;;;;;;;;;4966908;28;20696;-87
2021/01/09 02:15:54;;;;;;;37.23;20.60;;;;;;;;;;4977497;28;20269;-87
2021/01/09 02:18:20;;;;;;;37.57;21.03;;;;;;;;;;4983877;28;20316;-87
2021/01/09 02:20:49;;;;;;;36.67;21.13;;;;;;;;;;4974381;28;20277;-86
2021/01/09 02:23:15;;;;;;;40.97;21.40;;;;;;;;;;4973196;28;20771;-87
2021/01/09 02:25:41;;;;;;;39.83;21.47;;;;;;;;;;4976965;28;20635;-87
2021/01/09 02:28:07;;;;;;;37.00;21.07;;;;;;;;;;4977122;28;20358;-86
2021/01/09 02:30:35;;;;;;;35.13;19.13;;;;;;;;;;4989641;28;20246;-86
2021/01/09 02:33:03;;;;;;;39.17;20.27;;;;;;;;;;4981435;28;20255;-87
2021/01/09 02:35:31;;;;;;;37.13;19.63;;;;;;;;;;4975016;28;20320;-87
2021/01/09 02:37:57;;;;;;;36.17;20.43;;;;;;;;;;4983557;28;20293;-81
2021/01/09 02:40:23;;;;;;;34.77;19.67;;;;;;;;;;4969825;28;20278;-81
2021/01/09 02:42:49;;;;;;;37.93;18.47;;;;;;;;;;4985389;28;20369;-82
2021/01/09 02:45:16;;;;;;;35.03;18.93;;;;;;;;;;4972887;28;20297;-81
2021/01/09 02:47:42;;;;;;;32.77;17.97;;;;;;;;;;4980553;28;20262;-82
2021/01/09 02:50:11;;;;;;;34.63;19.53;;;;;;;;;;4992315;28;20266;-81
2021/01/09 02:52:41;;;;;;;31.63;18.80;;;;;;;;;;4973305;28;20680;-82
2021/01/09 02:55:35;;;;;;;34.63;18.70;;;;;;;;;;4972334;28;20293;-82
2021/01/09 02:58:02;;;;;;;36.90;20.20;;;;;;;;;;4979111;28;20282;-82
2021/01/09 03:00:28;;;;;;;34.07;18.63;;;;;;;;;;4973352;28;20805;-81
2021/01/09 03:02:54;;;;;;;33.10;18.23;;;;;;;;;;4974984;28;20281;-81
2021/01/09 03:05:20;;;;;;;37.70;18.00;;;;;;;;;;4975247;28;20286;-81
2021/01/09 03:07:46;;;;;;;32.47;16.37;;;;;;;;;;4974578;28;20813;-81
2021/01/09 03:10:31;;;;;;;33.00;18.93;;;;;;;;;;4975028;28;20274;-81
2021/01/09 03:12:57;;;;;;;39.57;19.80;;;;;;;;;;4974254;28;20294;-80
2021/01/09 03:15:23;;;;;;;33.33;18.10;;;;;;;;;;4990623;28;20361;-81
2021/01/09 03:17:51;;;;;;;34.37;18.13;;;;;;;;;;4974464;28;20302;-81
2021/01/09 03:20:18;;;;;;;34.10;18.67;;;;;;;;;;4974632;28;20290;-81
2021/01/09 03:22:44;;;;;;;32.33;18.77;;;;;;;;;;4974913;28;20539;-82
2021/01/09 03:25:10;;;;;;;37.33;19.93;;;;;;;;;;4977016;28;20289;-82
2021/01/09 03:27:36;;;;;;;36.17;19.60;;;;;;;;;;4974633;28;20270;-82
2021/01/09 03:30:03;;;;;;;38.10;21.27;;;;;;;;;;4975169;28;20270;-82
2021/01/09 03:32:29;;;;;;;33.03;18.40;;;;;;;;;;4961781;28;20329;-82
2021/01/09 03:34:55;;;;;;;37.10;20.90;;;;;;;;;;4968606;28;20275;-82
2021/01/09 03:37:25;;;;;;;33.33;18.27;;;;;;;;;;4963569;28;20270;-82
2021/01/09 03:39:51;;;;;;;37.37;19.97;;;;;;;;;;4971566;28;20282;-82
2021/01/09 03:42:17;;;;;;;35.07;17.53;;;;;;;;;;4981464;28;20393;-81
2021/01/09 03:44:43;;;;;;;34.73;18.30;;;;;;;;;;4977013;28;20294;-81
2021/01/09 03:47:10;;;;;;;34.97;19.83;;;;;;;;;;4973698;28;20278;-81
2021/01/09 03:49:36;;;;;;;37.93;20.70;;;;;;;;;;4964555;28;20283;-82
2021/01/09 03:52:02;;;;;;;44.40;22.23;;;;;;;;;;4983938;28;20274;-81
2021/01/09 03:54:34;;;;;;;38.47;20.37;;;;;;;;;;4977167;28;20360;-81
2021/01/09 03:57:00;;;;;;;39.60;21.47;;;;;;;;;;4983351;28;20293;-81
2021/01/09 03:59:26;;;;;;;38.07;20.27;;;;;;;;;;4988962;28;20265;-81
2021/01/09 04:01:53;;;;;;;36.10;20.93;;;;;;;;;;4974286;28;20274;-82
2021/01/09 04:04:19;;;;;;;39.73;21.13;;;;;;;;;;4977553;28;20297;-81
2021/01/09 04:06:45;;;;;;;38.77;20.30;;;;;;;;;;4979727;28;20280;-82
2021/01/09 04:09:11;;;;;;;40.20;22.73;;;;;;;;;;4983472;28;20756;-82
2021/01/09 04:11:37;;;;;;;43.13;22.87;;;;;;;;;;4981482;28;20565;-82
2021/01/09 04:14:03;;;;;;;37.83;20.77;;;;;;;;;;4977596;28;20286;-82
2021/01/09 04:16:30;;;;;;;41.83;22.60;;;;;;;;;;4989206;28;20332;-82
2021/01/09 04:18:56;;;;;;;42.23;21.97;;;;;;;;;;4980271;28;20317;-82
2021/01/09 04:21:22;;;;;;;41.10;22.73;;;;;;;;;;4978183;28;20959;-82
2021/01/09 04:23:48;;;;;;;41.17;22.30;;;;;;;;;;4983792;28;20321;-83
2021/01/09 04:26:15;;;;;;;42.23;23.37;;;;;;;;;;4981611;28;20775;-82
2021/01/09 04:28:41;;;;;;;43.77;23.90;;;;;;;;;;4977175;28;20629;-82
2021/01/09 04:31:07;;;;;;;41.27;24.23;;;;;;;;;;4976795;28;20317;-81
2021/01/09 04:33:33;;;;;;;41.30;22.80;;;;;;;;;;4991086;28;20349;-82
2021/01/09 04:35:59;;;;;;;40.03;23.23;;;;;;;;;;4976796;28;20270;-82
2021/01/09 04:38:26;;;;;;;40.30;23.67;;;;;;;;;;4984609;28;20273;-81
2021/01/09 04:40:52;;;;;;;44.50;24.87;;;;;;;;;;4984253;28;20316;-83
2021/01/09 04:43:19;;;;;;;38.70;24.33;;;;;;;;;;4971864;28;20381;-81
2021/01/09 04:45:46;;;;;;;39.40;23.93;;;;;;;;;;4979418;28;20272;-81
2021/01/09 04:48:13;;;;;;;42.57;22.83;;;;;;;;;;4971578;28;20289;-82
2021/01/09 04:50:40;;;;;;;42.70;25.10;;;;;;;;;;4977624;28;20277;-83
2021/01/09 04:53:08;;;;;;;41.70;24.67;;;;;;;;;;4972497;28;20538;-82
2021/01/09 04:55:37;;;;;;;43.83;23.27;;;;;;;;;;4984040;28;20285;-82
2021/01/09 04:58:03;;;;;;;42.33;25.13;;;;;;;;;;4983530;28;20269;-81
2021/01/09 05:00:29;;;;;;;38.57;22.20;;;;;;;;;;4983273;28;20987;-80
2021/01/09 05:02:56;;;;;;;36.87;21.97;;;;;;;;;;4986195;28;20285;-81
2021/01/09 05:05:22;;;;;;;41.97;23.20;;;;;;;;;;4982448;28;20285;-81
2021/01/09 05:07:48;;;;;;;43.57;24.37;;;;;;;;;;4978153;28;20871;-82
2021/01/09 05:10:15;;;;;;;43.77;25.47;;;;;;;;;;4988845;28;20298;-82
2021/01/09 05:12:42;;;;;;;43.03;24.47;;;;;;;;;;4990058;28;20258;-82
2021/01/09 05:15:08;;;;;;;44.03;25.23;;;;;;;;;;4986039;28;20321;-82
2021/01/09 05:17:37;;;;;;;47.77;24.83;;;;;;;;;;4982602;28;20285;-82
2021/01/09 05:20:05;;;;;;;45.00;24.83;;;;;;;;;;4974374;28;20321;-80
2021/01/09 05:22:31;;;;;;;42.77;24.13;;;;;;;;;;4971585;28;20436;-80
2021/01/09 05:24:57;;;;;;;49.53;27.77;;;;;;;;;;4983693;28;20293;-80
2021/01/09 05:27:23;;;;;;;40.33;23.03;;;;;;;;;;4998449;28;20345;-83
2021/01/09 05:29:56;;;;;;;46.80;26.07;;;;;;;;;;4977731;28;20329;-81
2021/01/09 05:32:23;;;;;;;41.00;23.30;;;;;;;;;;4979484;28;20369;-87
2021/01/09 05:34:50;;;;;;;45.73;24.87;;;;;;;;;;4987545;28;20294;-88
2021/01/09 05:37:26;;;;;;;46.80;26.00;;;;;;;;;;4972496;28;20277;-88
2021/01/09 05:39:53;;;;;;;49.70;25.87;;;;;;;;;;4972363;28;20281;-88
2021/01/09 05:42:24;;;;;;;46.23;24.67;;;;;;;;;;4984262;28;20324;-88
2021/01/09 05:44:51;;;;;;;51.40;24.77;;;;;;;;;;5001768;28;20285;-88
2021/01/09 05:47:18;;;;;;;48.00;26.60;;;;;;;;;;5001458;28;20290;-88
2021/01/09 05:49:45;;;;;;;42.83;23.17;;;;;;;;;;4992454;28;20286;-88
2021/01/09 05:52:12;;;;;;;48.90;24.60;;;;;;;;;;5004457;28;20301;-88
2021/01/09 05:54:38;;;;;;;48.90;23.90;;;;;;;;;;5003991;28;20286;-88
2021/01/09 05:57:05;;;;;;;49.67;25.50;;;;;;;;;;4997041;28;20395;-88
2021/01/09 05:59:33;;;;;;;53.23;25.63;;;;;;;;;;4999076;28;20262;-87
2021/01/09 06:02:00;;;;;;;50.57;24.83;;;;;;;;;;5005204;28;20274;-87
2021/01/09 06:04:31;;;;;;;49.73;24.17;;;;;;;;;;4993183;28;20322;-87
2021/01/09 06:07:06;;;;;;;51.23;24.50;;;;;;;;;;4981241;28;20284;-87
2021/01/09 06:09:35;;;;;;;51.03;25.03;;;;;;;;;;4985861;28;20269;-87
2021/01/09 06:12:04;;;;;;;53.03;25.17;;;;;;;;;;4982274;28;20282;-87
2021/01/09 06:14:33;;;;;;;61.90;27.13;;;;;;;;;;4998875;28;20373;-87
2021/01/09 06:16:59;;;;;;;55.77;25.83;;;;;;;;;;4987765;28;20266;-87
2021/01/09 06:19:25;;;;;;;50.47;25.27;;;;;;;;;;4993039;28;20282;-87
2021/01/09 06:21:54;;;;;;;51.47;25.77;;;;;;;;;;4988716;28;20265;-88
2021/01/09 06:24:24;;;;;;;55.87;26.73;;;;;;;;;;4996989;28;20486;-87
2021/01/09 06:26:51;;;;;;;53.13;25.80;;;;;;;;;;4999175;28;20285;-87
2021/01/09 06:29:35;;;;;;;53.17;24.10;;;;;;;;;;5003461;28;20274;-88
2021/01/09 06:32:05;;;;;;;54.17;24.17;;;;;;;;;;4998953;28;20288;-87
2021/01/09 06:34:32;;;;;;;53.20;26.53;;;;;;;;;;5007569;28;20361;-87
2021/01/09 06:36:59;;;;;;;68.07;32.33;;;;;;;;;;4998243;28;20289;-87
2021/01/09 06:39:26;;;;;;;64.40;31.33;;;;;;;;;;4996841;28;20317;-87
2021/01/09 06:41:54;;;;;;;59.03;27.70;;;;;;;;;;4996417;28;20290;-87
2021/01/09 06:44:22;;;;;;;51.23;26.10;;;;;;;;;;5001099;28;20730;-87
2021/01/09 06:46:50;;;;;;;52.50;25.97;;;;;;;;;;4998890;28;20309;-87
2021/01/09 06:49:17;;;;;;;51.53;24.10;;;;;;;;;;5003431;28;20266;-88
2021/01/09 06:51:44;;;;;;;58.63;24.67;;;;;;;;;;5003419;28;20273;-87
2021/01/09 06:54:17;;;;;;;50.00;26.17;;;;;;;;;;5005740;28;20284;-88
2021/01/09 06:56:47;;;;;;;54.65;27.13;;;;;;;;;;4995907;28;20298;-86
2021/01/09 06:59:33;;;;;;;50.13;25.77;;;;;;;;;;4996379;28;20035;-87
2021/01/09 07:02:11;;;;;;;55.13;26.23;;;;;;;;;;4988182;28;20266;-86
2021/01/09 07:04:49;;;;;;;56.97;26.43;;;;;;;;;;4989386;28;20290;-87
2021/01/09 07:07:25;;;;;;;52.53;25.63;;;;;;;;;;4978203;28;20264;-87
2021/01/09 07:09:51;;;;;;;53.47;25.57;;;;;;;;;;4995993;28;20262;-86
2021/01/09 07:12:18;;;;;;;51.53;26.40;;;;;;;;;;4985037;28;20270;-87
2021/01/09 07:14:44;;;;;;;53.60;27.90;;;;;;;;;;4992311;28;20270;-86
2021/01/09 07:17:11;;;;;;;50.73;26.67;;;;;;;;;;4994619;28;20294;-87
2021/01/09 07:19:39;;;;;;;50.33;26.70;;;;;;;;;;4994330;28;20278;-87
2021/01/09 07:22:07;;;;;;;48.77;26.80;;;;;;;;;;4976377;28;20345;-87
2021/01/09 07:24:35;;;;;;;50.27;26.30;;;;;;;;;;4983540;28;20312;-87
2021/01/09 07:27:01;;;;;;;50.27;27.07;;;;;;;;;;4981714;28;20277;-88
2021/01/09 07:29:27;;;;;;;51.00;25.80;;;;;;;;;;4987759;28;20324;-88
2021/01/09 07:31:53;;;;;;;48.13;25.83;;;;;;;;;;4982927;28;20278;-86
2021/01/09 07:34:23;;;;;;;48.77;24.73;;;;;;;;;;4994058;28;20266;-86
2021/01/09 07:36:53;;;;;;;47.53;24.63;;;;;;;;;;4970194;28;20290;-84
2021/01/09 07:39:24;;;;;;;48.63;25.73;;;;;;;;;;4974442;28;20849;-83
2021/01/09 07:41:51;;;;;;;48.77;23.90;;;;;;;;;;4975884;28;20270;-84
2021/01/09 07:44:18;;;;;;;51.47;25.40;;;;;;;;;;4980660;28;20286;-83
2021/01/09 07:46:58;;;;;;;46.67;23.53;;;;;;;;;;4973885;28;20554;-84
2021/01/09 07:49:28;;;;;;;43.43;22.70;;;;;;;;;;4975008;28;20278;-87
2021/01/09 07:51:56;;;;;;;46.83;24.27;;;;;;;;;;4981146;28;20328;-87
2021/01/09 07:54:41;;;;;;;46.90;24.13;;;;;;;;;;4985901;28;20266;-87
2021/01/09 07:57:19;;;;;;;47.60;25.67;;;;;;;;;;4992663;28;20620;-87
2021/01/09 07:59:54;;;;;;;46.67;24.80;;;;;;;;;;4973439;28;20309;-86
2021/01/09 08:02:24;;;;;;;40.03;22.90;;;;;;;;;;4992358;28;20311;-87
2021/01/09 08:04:50;;;;;;;41.20;22.10;;;;;;;;;;4979620;28;20337;-87
2021/01/09 08:07:17;;;;;;;42.07;21.53;;;;;;;;;;4985814;28;20376;-87
2021/01/09 08:09:43;;;;;;;38.37;21.97;;;;;;;;;;4982406;28;20361;-85
2021/01/09 08:12:09;;;;;;;44.57;24.73;;;;;;;;;;4979392;28;20700;-86
2021/01/09 08:14:35;;;;;;;40.87;21.57;;;;;;;;;;4974812;28;20278;-87
2021/01/09 08:17:10;;;;;;;43.73;23.47;;;;;;;;;;4974583;28;20285;-87
2021/01/09 08:19:37;;;;;;;44.73;24.60;;;;;;;;;;4980579;28;20278;-86
2021/01/09 08:22:04;;;;;;;43.63;24.97;;;;;;;;;;4975979;28;20267;-87
2021/01/09 08:24:30;;;;;;;39.43;22.17;;;;;;;;;;4972644;28;20373;-87
2021/01/09 08:26:57;;;;;;;38.97;21.53;;;;;;;;;;4975735;28;20311;-87
2021/01/09 08:29:24;;;;;;;34.50;18.77;;;;;;;;;;4962026;28;20285;-87
2021/01/09 08:31:51;;;;;;;36.00;19.33;;;;;;;;;;4983076;28;20274;-87
2021/01/09 08:34:25;;;;;;;32.57;19.50;;;;;;;;;;4974819;28;21001;-88
2021/01/09 08:37:04;;;;;;;31.97;17.90;;;;;;;;;;4977858;28;20696;-87
2021/01/09 08:39:35;;;;;;;35.23;19.53;;;;;;;;;;4975365;28;20650;-87
2021/01/09 08:42:01;;;;;;;35.23;18.83;;;;;;;;;;4981936;28;20809;-87
2021/01/09 08:44:27;;;;;;;30.00;18.47;;;;;;;;;;4982499;28;20299;-87
2021/01/09 08:46:55;;;;;;;31.77;19.17;;;;;;;;;;4977218;28;20286;-87
2021/01/09 08:49:26;;;;;;;32.60;19.03;;;;;;;;;;4980372;28;20298;-87
2021/01/09 08:51:55;;;;;;;36.60;22.27;;;;;;;;;;4973909;28;20341;-87
2021/01/09 08:54:21;;;;;;;31.73;20.97;;;;;;;;;;4975523;28;20660;-88
2021/01/09 08:56:48;;;;;;;39.37;22.80;;;;;;;;;;4974716;28;20351;-87
2021/01/09 08:59:14;;;;;;;33.10;20.20;;;;;;;;;;4984114;28;21031;-87
2021/01/09 09:01:48;;;;;;;31.97;19.90;;;;;;;;;;4975235;28;20284;-87
2021/01/09 09:04:17;;;;;;;28.83;18.07;;;;;;;;;;4971102;28;20030;-87
2021/01/09 09:06:44;;;;;;;27.50;16.83;;;;;;;;;;4974158;28;20812;-87
2021/01/09 09:09:17;;;;;;;33.40;20.00;;;;;;;;;;4990979;28;20284;-88
2021/01/09 09:11:49;;;;;;;28.37;16.90;;;;;;;;;;4974494;28;20263;-87
2021/01/09 09:14:16;;;;;;;37.60;22.38;;;;;;;;;;4976842;28;20046;-88
2021/01/09 09:16:43;;;;;;;34.23;20.90;;;;;;;;;;4973673;28;20680;-88
2021/01/09 09:19:09;;;;;;;35.40;22.07;;;;;;;;;;4983019;28;20034;-87
2021/01/09 09:21:41;;;;;;;30.20;18.07;;;;;;;;;;4976816;28;20163;-88
2021/01/09 09:24:07;;;;;;;30.73;17.77;;;;;;;;;;4976472;28;20051;-89
2021/01/09 09:26:34;;;;;;;27.27;16.67;;;;;;;;;;4984820;28;20515;-90
2021/01/09 09:29:00;;;;;;;26.67;16.33;;;;;;;;;;4981750;28;20081;-89
2021/01/09 09:31:28;;;;;;;25.50;15.47;;;;;;;;;;4986891;28;20046;-89
2021/01/09 09:33:55;;;;;;;24.83;15.70;;;;;;;;;;4976262;28;20093;-88
2021/01/09 09:36:30;;;;;;;28.37;17.93;;;;;;;;;;4975026;28;20033;-88
2021/01/09 09:38:57;;;;;;;26.87;16.27;;;;;;;;;;4981108;28;20037;-88
2021/01/09 09:41:23;;;;;;;26.90;16.53;;;;;;;;;;4984589;28;20046;-87
2021/01/09 09:43:56;;;;;;;26.00;15.80;;;;;;;;;;4980824;28;20033;-87
2021/01/09 09:46:23;;;;;;;28.08;17.25;;;;;;;;;;4981428;28;20031;-88
2021/01/09 09:48:49;;;;;;;23.70;15.30;;;;;;;;;;4994023;28;20169;-88
2021/01/09 09:51:15;;;;;;;29.13;16.07;;;;;;;;;;4997023;28;20045;-87
2021/01/09 09:53:59;;;;;;;26.53;15.77;;;;;;;;;;4984970;28;20034;-87
2021/01/09 09:56:45;;;;;;;25.30;16.03;;;;;;;;;;4984822;28;20034;-88
2021/01/09 09:59:11;;;;;;;25.37;15.70;;;;;;;;;;4992582;28;20046;-86
2021/01/09 10:01:38;;;;;;;27.33;17.10;;;;;;;;;;4969925;28;20041;-87
2021/01/09 10:04:14;;;;;;;23.77;15.83;;;;;;;;;;4987441;28;20022;-87
2021/01/09 10:06:41;;;;;;;28.00;16.50;;;;;;;;;;4990928;28;20026;-87
2021/01/09 10:09:11;;;;;;;26.53;16.53;;;;;;;;;;4976156;28;20412;-87
2021/01/09 10:11:37;;;;;;;28.17;16.93;;;;;;;;;;4974415;28;20027;-86
2021/01/09 10:14:04;;;;;;;24.33;15.20;;;;;;;;;;4975478;28;20019;-87
2021/01/09 10:16:30;;;;;;;22.07;14.70;;;;;;;;;;4975460;28;20038;-87
2021/01/09 10:18:57;;;;;;;23.80;14.50;;;;;;;;;;4976247;28;20034;-88
2021/01/09 10:21:30;;;;;;;24.17;16.47;;;;;;;;;;4983073;28;20062;-87
2021/01/09 10:23:59;;;;;;;16.95;11.10;;;;;;;;;;4983612;28;20023;-88
2021/01/09 10:26:35;;;;;;;23.13;13.10;;;;;;;;;;4987847;28;20030;-89
2021/01/09 10:29:02;;;;;;;24.50;13.90;;;;;;;;;;4975447;28;20431;-87
2021/01/09 10:31:46;;;;;;;35.03;19.10;;;;;;;;;;4976318;28;20262;-87
2021/01/09 10:34:12;;;;;;;32.87;17.40;;;;;;;;;;4982960;28;20897;-87
2021/01/09 10:36:39;;;;;;;21.53;13.17;;;;;;;;;;4979249;28;20277;-87
2021/01/09 10:45:28;;;;;;;21.80;12.73;;;;;;;;;;4946096;29;20066;-87
2021/01/09 10:48:29;;;;;;;21.77;12.67;;;;;;;;;;4937620;28;20055;-87
2021/01/09 10:50:58;;;;;;;22.30;12.60;;;;;;;;;;4936775;29;20036;-87
2021/01/09 10:53:24;;;;;;;20.03;11.97;;;;;;;;;;4938521;29;20083;-88
2021/01/09 10:56:27;;;;;;;;;;;;;;;;;;;;;
2021/01/09 10:58:53;;;;;;;17.37;10.27;;;;;;;;;;4936273;29;20087;-87
2021/01/09 11:11:20;;;;;;;21.63;11.63;;;;;;;;;;4940685;29;20255;-88
2021/01/09 11:13:48;;;;;;;29.47;14.53;;;;;;;;;;4927404;29;20055;-88
2021/01/09 11:19:44;;;;;;;16.90;10.23;;;;;;;;;;4981277;28;20266;-88
2021/01/09 11:38:03;;;;;;;14.95;8.82;;;;;;;;;;4971171;28;20695;-87
2021/01/09 11:40:52;;;;;;;13.47;8.17;;;;;;;;;;4965383;28;20058;-87
2021/01/09 11:43:21;;;;;;;20.23;10.70;;;;;;;;;;4956146;28;20046;-87
2021/01/09 11:45:47;;;;;;;24.00;16.00;;;;;;;;;;4960673;28;20019;-86
2021/01/09 11:48:35;;;;;;;17.60;11.40;;;;;;;;;;4970202;28;20090;-87
2021/01/09 11:51:05;;;;;;;18.33;10.90;;;;;;;;;;4954617;28;20616;-88
2021/01/09 11:53:31;;;;;;;17.73;10.83;;;;;;;;;;4949849;28;20239;-87
2021/01/09 11:56:00;;;;;;;19.30;11.20;;;;;;;;;;4957670;28;20349;-87
2021/01/09 11:58:26;;;;;;;17.97;9.33;;;;;;;;;;4956391;28;20324;-86
2021/01/09 12:00:52;;;;;;;15.90;9.23;;;;;;;;;;4956237;28;20022;-86
2021/01/09 12:03:18;;;;;;;22.20;12.50;;;;;;;;;;4965231;28;20054;-86
2021/01/09 12:05:45;;;;;;;16.87;9.83;;;;;;;;;;4966777;28;20081;-87
2021/01/09 12:08:11;;;;;;;55.03;22.17;;;;;;;;;;4957142;28;20064;-86
2021/01/09 12:10:44;;;;;;;68.93;29.30;;;;;;;;;;4974543;28;20054;-86
2021/01/09 12:13:10;;;;;;;36.33;16.52;;;;;;;;;;4962398;28;20038;-86
2021/01/09 12:15:50;;;;;;;31.33;16.27;;;;;;;;;;4965274;28;20459;-85
2021/01/09 12:18:23;;;;;;;19.57;11.83;;;;;;;;;;4978181;28;20038;-86
2021/01/09 12:20:55;;;;;;;17.70;10.90;;;;;;;;;;4956710;28;20030;-87
2021/01/09 12:23:21;;;;;;;23.43;13.13;;;;;;;;;;4966117;28;20034;-87
2021/01/09 12:25:48;;;;;;;16.37;8.90;;;;;;;;;;4971682;28;20034;-87
2021/01/09 12:28:16;;;;;;;15.90;8.77;;;;;;;;;;4962910;28;20082;-88
2021/01/09 12:30:42;;;;;;;12.07;8.03;;;;;;;;;;4962139;28;20030;-86
2021/01/09 12:33:09;;;;;;;13.90;8.40;;;;;;;;;;4956833;28;20269;-87
2021/01/09 12:35:35;;;;;;;16.27;9.57;;;;;;;;;;4957193;28;20609;-87
2021/01/09 12:38:01;;;;;;;34.57;19.67;;;;;;;;;;4963051;28;20308;-87
2021/01/09 12:40:33;;;;;;;17.17;10.30;;;;;;;;;;4978028;28;20277;-89
2021/01/09 12:43:00;;;;;;;19.70;11.67;;;;;;;;;;4966458;28;20314;-89
2021/01/09 12:45:30;;;;;;;15.27;8.47;;;;;;;;;;4960807;28;20829;-87
2021/01/09 12:47:59;;;;;;;10.60;6.47;;;;;;;;;;4970977;28;20265;-86
2021/01/09 12:50:25;;;;;;;12.27;7.07;;;;;;;;;;4961829;28;20302;-91
2021/01/09 12:52:51;;;;;;;11.07;7.60;;;;;;;;;;4958494;28;20261;-86
2021/01/09 12:55:17;;;;;;;12.80;7.97;;;;;;;;;;4963226;28;20759;-86
2021/01/09 12:57:44;;;;;;;10.67;6.30;;;;;;;;;;4967441;28;20270;-89
2021/01/09 13:03:30;;;;;;;10.87;6.33;;;;;;;;;;4970951;28;20799;-86
2021/01/09 13:05:59;;;;;;;8.87;5.23;;;;;;;;;;4954255;28;20089;-87
2021/01/09 13:08:26;;;;;;;11.83;6.10;;;;;;;;;;4964808;28;20043;-90
2021/01/09 13:17:04;;;;;;;13.47;8.00;;;;;;;;;;4969007;28;20027;-90
2021/01/09 13:19:34;;;;;;;21.07;11.30;;;;;;;;;;4972263;28;20031;-90
2021/01/09 13:31:25;;;;;;;13.83;8.03;;;;;;;;;;4929414;29;20027;-91
2021/01/09 13:33:58;;;;;;;16.80;7.97;;;;;;;;;;4935522;29;20874;-88
2021/01/09 13:36:33;;;;;;;24.57;11.20;;;;;;;;;;4922963;29;20024;-87
2021/01/09 13:39:00;;;;;;;10.20;5.87;;;;;;;;;;4951549;28;20035;-89
2021/01/09 13:41:26;;;;;;;14.43;8.37;;;;;;;;;;4979101;28;20038;-89
2021/01/09 13:43:55;;;;;;;23.00;9.50;;;;;;;;;;4962612;28;20451;-90
2021/01/09 13:46:28;;;;;;;11.47;6.47;;;;;;;;;;4986896;28;20023;-89
2021/01/09 13:48:57;;;;;;;14.87;8.83;;;;;;;;;;4984038;28;20037;-89
2021/01/09 13:51:24;;;;;;;12.70;6.97;;;;;;;;;;4963381;28;20030;-89
2021/01/09 13:53:56;;;;;;;13.67;7.73;;;;;;;;;;4961189;28;20042;-90
2021/01/09 13:56:34;;;;;;;15.57;8.47;;;;;;;;;;4968561;28;20034;-90
2021/01/09 13:59:01;;;;;;;16.30;7.50;;;;;;;;;;4967771;28;20089;-88
2021/01/09 14:01:27;;;;;;;11.43;6.50;;;;;;;;;;4962104;28;20034;-89
2021/01/09 14:03:55;;;;;;;20.03;10.00;;;;;;;;;;4965284;28;20037;-89
2021/01/09 14:06:22;;;;;;;19.73;8.87;;;;;;;;;;4967436;28;20023;-89
2021/01/09 14:08:48;;;;;;;12.27;7.00;;;;;;;;;;4968781;28;20034;-90
2021/01/09 14:11:17;;;;;;;10.17;6.33;;;;;;;;;;4964628;28;20028;-89
2021/01/09 14:13:47;;;;;;;17.97;8.40;;;;;;;;;;4962297;28;20763;-88
2021/01/09 14:16:18;;;;;;;15.40;7.87;;;;;;;;;;4968495;28;20031;-90
2021/01/09 14:18:57;;;;;;;15.13;8.17;;;;;;;;;;4965166;28;20038;-91
2021/01/09 14:21:25;;;;;;;15.77;7.40;;;;;;;;;;4958184;28;20081;-91
2021/01/09 14:26:42;;;;;;;14.33;7.60;;;;;;;;;;4980276;28;20559;-90
2021/01/09 14:29:19;;;;;;;12.10;6.80;;;;;;;;;;4951751;28;20283;-90
2021/01/09 14:31:53;;;;;;;10.37;5.97;;;;;;;;;;4962949;28;20258;-91
2021/01/09 14:34:31;;;;;;;9.53;5.50;;;;;;;;;;4958506;28;20306;-89
2021/01/09 14:37:03;;;;;;;10.63;6.03;;;;;;;;;;4954341;28;21011;-88
2021/01/09 14:39:50;;;;;;;8.77;5.00;;;;;;;;;;4958192;28;20793;-88
2021/01/09 14:42:17;;;;;;;10.10;5.73;;;;;;;;;;4953526;28;20289;-88
2021/01/09 14:44:43;;;;;;;12.50;6.77;;;;;;;;;;4965195;28;20358;-88
2021/01/09 14:47:10;;;;;;;11.67;6.63;;;;;;;;;;4956367;28;20258;-89
2021/01/09 14:49:37;;;;;;;11.00;6.87;;;;;;;;;;4954831;28;20337;-88
2021/01/09 14:52:03;;;;;;;11.10;6.73;;;;;;;;;;4956890;28;20267;-88
2021/01/09 14:54:30;;;;;;;10.13;6.27;;;;;;;;;;4960267;28;20267;-89
2021/01/09 14:56:56;;;;;;;11.20;7.17;;;;;;;;;;4973543;28;20280;-89
2021/01/09 15:02:39;;;;;;;13.10;7.27;;;;;;;;;;4976328;28;20810;-89
2021/01/09 15:05:05;;;;;;;11.53;6.20;;;;;;;;;;4958298;28;20353;-90
2021/01/09 15:07:32;;;;;;;11.17;6.53;;;;;;;;;;4963516;28;20274;-88
2021/01/09 15:09:58;;;;;;;17.63;10.47;;;;;;;;;;4956020;28;20266;-89
2021/01/09 15:12:24;;;;;;;17.27;9.20;;;;;;;;;;4958063;28;20306;-89
2021/01/09 15:14:51;;;;;;;15.03;8.73;;;;;;;;;;4952494;28;20313;-89
2021/01/09 15:17:17;;;;;;;19.40;11.70;;;;;;;;;;4964405;28;20273;-89
2021/01/09 15:19:43;;;;;;;18.03;11.07;;;;;;;;;;4973627;28;20313;-89
2021/01/09 15:22:19;;;;;;;19.00;10.27;;;;;;;;;;4966947;28;20289;-89
2021/01/09 15:25:13;;;;;;;35.50;16.43;;;;;;;;;;4968120;28;20290;-90
2021/01/09 15:30:32;;;;;;;16.87;9.57;;;;;;;;;;4987407;28;19961;-90
2021/01/09 15:33:47;;;;;;;17.60;10.10;;;;;;;;;;4985987;28;20773;-90
2021/01/09 15:42:58;;;;;;;;;;;;;;;;;;;;;